Yalesville, CT

1:02 AM EST on March 02, 2015 (GMT -0500)
Choate | Change Station
CLOSE
Current Station
Personal Weather Station
Location: Wallingford, CT
Elevation: 159 ft
Nearby Weather Stations

Elev 159 ft 41.46 °N, 72.81 °W | Updated 10 minutes ago

Snow
Snow
26.1 °F
Feels Like 26 °F
N
0.0
Wind Variable Wind from West

Today
High -- | Low -- °F
--% Chance of Precip.
Yesterday
High -- | Low -- °F
Precip. -- in
6:24 AM 5:42 PM
Waxing Gibbous, 89% visible
Pressure 30.10 in
Visibility 4.0 miles
Clouds Few 3500 ft
Mostly Cloudy 9000 ft
Overcast 11000 ft
Windchill 26 °F
Dew Point 24 °F
Humidity 93%
Rainfall 0.00 in
Snow Depth Not available.
UV 0.0 out of 12
Pollen .40 out of 12
Air Quality Not available.
Flu Activity Not available.
METAR KMMK 020553Z AUTO 00000KT 4SM BR FEW035 BKN090 OVC110 M03/M05 A3009 RMK AO2 SNE19 SLP193 P0000 60004 T10331050 11033 21039 58029 TSNO

More Conditions Fewer Conditions

Pressure 30.10 in
Visibility 4.0 miles
Clouds Few 3500 ft
Mostly Cloudy 9000 ft
Overcast 11000 ft
Windchill 26 °F
Dew Point 24 °F
Humidity 93%
Rainfall 0.00 in
Snow Depth Not available.
UV 0.0 out of 12
Pollen .40 out of 12
Air Quality Not available.
Flu Activity Not available.
METAR KMMK 020553Z AUTO 00000KT 4SM BR FEW035 BKN090 OVC110 M03/M05 A3009 RMK AO2 SNE19 SLP193 P0000 60004 T10331050 11033 21039 58029 TSNO

More Conditions Fewer Conditions

10-Day Weather Forecast

Almanac

Astronomy

Mar. 02, 2015 Rise Set
Actual Time
Civil Twilight
Nautical Twilight
Astronomical Twilight
Moon
Length of Visible Light
Length of Day
Tomorrow will be .
, % of the Moon is Illuminated

Today's Extremes

State Highs State Lows

Community

WunderPhotos

Upload Photos

1,801,738 photos uploaded!

WunderBlogs® & News

Nearby

Air Quality

  Air Quality AQ Index Pollutant
Not available.

Snow Depth

Station Depth Elevation

Earthquake Activity

City Distance Mag. Time & Date
Minimum magnitude displayed is 2.5.

Coastal Water Temperatures

Place Temperature

Nearby Weather Stations